createdAt,value
2018-05-12T00:00:06.949Z,12.43
2018-05-12T00:02:34.416Z,11.77
2018-05-12T00:05:01.873Z,12.50
2018-05-12T00:07:30.134Z,12.37
2018-05-12T00:09:57.545Z,12.53
2018-05-12T00:12:25.005Z,11.97
2018-05-12T00:14:52.547Z,13.00
2018-05-12T00:17:20.693Z,13.63
2018-05-12T00:19:48.140Z,13.70
2018-05-12T00:22:15.603Z,13.53
2018-05-12T00:24:43.066Z,14.77
2018-05-12T00:27:10.525Z,14.53
2018-05-12T00:29:38.740Z,14.70
2018-05-12T00:32:06.208Z,14.40
2018-05-12T00:34:33.661Z,13.87
2018-05-12T00:37:01.125Z,14.77
2018-05-12T00:39:28.577Z,14.37
2018-05-12T00:41:56.849Z,16.57
2018-05-12T00:44:24.300Z,13.87
2018-05-12T00:46:51.760Z,15.70
2018-05-12T00:49:19.220Z,15.43
2018-05-12T00:51:46.676Z,15.50
2018-05-12T00:54:14.137Z,17.53
2018-05-12T00:56:41.592Z,17.33
2018-05-12T00:59:09.052Z,18.43
2018-05-12T01:01:37.267Z,16.77
2018-05-12T01:04:04.736Z,18.23
2018-05-12T01:06:32.245Z,17.83
2018-05-12T01:08:59.704Z,17.33
2018-05-12T01:11:27.161Z,18.60
2018-05-12T01:13:54.621Z,19.13
2018-05-12T01:16:22.096Z,18.87
2018-05-12T01:18:49.553Z,19.73
2018-05-12T01:21:17.049Z,19.20
2018-05-12T01:23:44.463Z,19.50
2018-05-12T01:26:12.683Z,20.73
2018-05-12T01:28:40.144Z,19.40
2018-05-12T01:31:07.595Z,19.73
2018-05-12T01:33:35.073Z,20.03
2018-05-12T01:36:02.520Z,21.20
2018-05-12T01:38:30.973Z,21.00
2018-05-12T01:40:58.563Z,21.37
2018-05-12T01:43:26.013Z,22.43
2018-05-12T01:45:53.492Z,21.87
2018-05-12T01:48:20.940Z,20.77
2018-05-12T01:50:48.401Z,22.83
2018-05-12T01:53:15.866Z,21.57
2018-05-12T01:55:43.332Z,21.87
2018-05-12T01:58:10.776Z,20.83
2018-05-12T02:00:38.241Z,19.90
2018-05-12T02:03:06.469Z,20.00
2018-05-12T02:05:33.921Z,21.20
2018-05-12T02:08:01.436Z,20.97
2018-05-12T02:10:28.903Z,23.07
2018-05-12T02:12:56.356Z,21.17
2018-05-12T02:15:23.816Z,22.93
2018-05-12T02:17:51.384Z,23.90
2018-05-12T02:20:18.845Z,21.00
2018-05-12T02:22:46.296Z,19.60
2018-05-12T02:25:13.757Z,23.60
2018-05-12T02:27:41.220Z,23.93
2018-05-12T02:30:09.460Z,23.73
2018-05-12T02:32:36.916Z,24.50
2018-05-12T02:35:04.364Z,26.53
2018-05-12T02:37:31.831Z,25.10
2018-05-12T02:39:59.291Z,27.60
2018-05-12T02:42:26.749Z,24.97
2018-05-12T02:44:54.979Z,24.87
2018-05-12T02:47:22.440Z,27.60
2018-05-12T02:49:49.880Z,25.50
2018-05-12T02:52:17.345Z,27.53
2018-05-12T02:54:45.560Z,26.57
2018-05-12T02:57:13.029Z,26.30
2018-05-12T02:59:40.483Z,28.43
2018-05-12T03:02:07.935Z,28.90
2018-05-12T03:04:36.157Z,29.43
2018-05-12T03:07:03.625Z,28.70
2018-05-12T03:09:31.086Z,29.37
2018-05-12T03:11:58.552Z,29.07
2018-05-12T03:14:26.037Z,27.07
2018-05-12T03:16:53.460Z,29.47
2018-05-12T03:19:21.681Z,30.17
2018-05-12T03:21:49.138Z,30.00
2018-05-12T03:24:16.601Z,28.70
2018-05-12T03:26:44.046Z,29.83
2018-05-12T03:29:11.491Z,26.17
2018-05-12T03:31:38.960Z,28.73
2018-05-12T03:34:06.413Z,29.30
2018-05-12T03:36:33.866Z,30.23
2018-05-12T03:39:01.320Z,27.53
2018-05-12T03:41:28.777Z,31.00
2018-05-12T03:43:56.244Z,29.77
2018-05-12T03:46:24.451Z,30.67
2018-05-12T03:48:51.917Z,28.80
2018-05-12T03:51:19.359Z,30.27
2018-05-12T03:53:47.584Z,27.87
2018-05-12T03:56:15.032Z,29.27
2018-05-12T03:58:42.516Z,27.43
2018-05-12T04:01:09.969Z,27.77
2018-05-12T04:03:37.440Z,28.43
2018-05-12T04:06:16.965Z,27.10
2018-05-12T04:08:57.943Z,27.73
2018-05-12T04:11:37.356Z,29.30
2018-05-12T04:14:04.815Z,30.63
2018-05-12T04:16:32.263Z,28.47
2018-05-12T04:18:59.738Z,28.87
2018-05-12T04:21:27.197Z,27.37
2018-05-12T04:23:55.415Z,26.07
2018-05-12T04:26:22.937Z,28.73
2018-05-12T04:28:50.380Z,28.47
2018-05-12T04:31:17.843Z,28.10
2018-05-12T04:33:45.387Z,28.07
2018-05-12T04:36:12.847Z,27.83
2018-05-12T04:38:40.294Z,29.33
2018-05-12T04:41:08.529Z,27.37
2018-05-12T04:43:35.979Z,29.30
2018-05-12T04:46:03.431Z,27.70
2018-05-12T04:48:30.892Z,27.50
2018-05-12T04:50:59.116Z,28.03
2018-05-12T04:53:26.570Z,26.43
2018-05-12T04:55:54.029Z,27.57
2018-05-12T04:58:21.471Z,28.83
2018-05-12T05:00:49.696Z,27.50
2018-05-12T05:03:17.154Z,25.27
2018-05-12T05:05:44.631Z,26.20
2018-05-12T05:08:12.116Z,26.70
2018-05-12T05:10:40.297Z,24.33
2018-05-12T05:13:07.748Z,27.33
2018-05-12T05:15:35.204Z,25.60
2018-05-12T05:18:03.429Z,25.07
2018-05-12T05:20:30.887Z,24.80
2018-05-12T05:22:58.352Z,26.60
2018-05-12T05:25:25.789Z,22.63
2018-05-12T05:27:54.039Z,24.63
2018-05-12T05:30:21.508Z,26.90
2018-05-12T05:32:48.975Z,23.57
2018-05-12T05:35:16.550Z,26.97
2018-05-12T05:37:43.988Z,24.20
2018-05-12T05:40:11.432Z,25.80
2018-05-12T05:42:38.897Z,26.87
2018-05-12T05:45:07.113Z,25.77
2018-05-12T05:47:34.572Z,25.30
2018-05-12T05:50:02.021Z,27.33
2018-05-12T05:52:29.492Z,27.43
2018-05-12T05:54:57.707Z,24.50
2018-05-12T05:57:25.176Z,28.50
2018-05-12T05:59:52.625Z,26.77
2018-05-12T06:02:20.084Z,26.80
2018-05-12T06:04:48.309Z,26.50
2018-05-12T06:07:15.878Z,31.03
2018-05-12T06:09:43.229Z,27.83
2018-05-12T06:12:10.694Z,30.57
2018-05-12T06:14:38.153Z,29.43
2018-05-12T06:17:05.642Z,27.87
2018-05-12T06:19:33.109Z,25.60
2018-05-12T06:22:00.560Z,29.33
2018-05-12T06:24:28.018Z,27.10
2018-05-12T06:26:56.235Z,30.93
2018-05-12T06:29:23.705Z,27.87
2018-05-12T06:31:51.155Z,30.07
2018-05-12T06:34:18.621Z,25.40
2018-05-12T06:36:46.064Z,23.57
2018-05-12T06:39:13.528Z,25.17
2018-05-12T06:41:40.980Z,24.60
2018-05-12T06:44:08.524Z,27.77
2018-05-12T06:46:35.968Z,23.47
2018-05-12T06:49:03.437Z,25.73
2018-05-12T06:51:30.893Z,27.67
2018-05-12T06:53:59.132Z,27.40
2018-05-12T06:56:26.584Z,28.20
2018-05-12T06:58:54.046Z,25.80
2018-05-12T07:01:21.537Z,25.83
2018-05-12T07:03:48.961Z,25.10
2018-05-12T07:06:17.191Z,28.07
2018-05-12T07:08:44.640Z,25.70
2018-05-12T07:11:12.106Z,23.70
2018-05-12T07:13:39.556Z,24.10
2018-05-12T07:16:07.786Z,25.00
2018-05-12T07:18:35.223Z,24.50
2018-05-12T07:21:02.689Z,24.33
2018-05-12T07:23:30.133Z,25.80
2018-05-12T07:25:58.359Z,24.03
2018-05-12T07:28:25.807Z,24.80
2018-05-12T07:30:53.272Z,26.17
2018-05-12T07:33:20.735Z,24.20
2018-05-12T07:35:48.969Z,24.87
2018-05-12T07:38:16.421Z,24.23
2018-05-12T07:40:43.880Z,22.43
2018-05-12T07:43:11.340Z,21.13
2018-05-12T07:45:39.562Z,21.27
2018-05-12T07:48:07.007Z,21.70
2018-05-12T07:50:34.465Z,23.47
2018-05-12T07:53:01.922Z,23.53
2018-05-12T07:55:30.144Z,24.80
2018-05-12T07:57:57.594Z,23.60
2018-05-12T08:00:25.048Z,23.20
2018-05-12T08:02:53.280Z,20.13
2018-05-12T08:05:20.735Z,22.43
2018-05-12T08:07:48.196Z,22.50
2018-05-12T08:10:15.678Z,20.43
2018-05-12T08:12:43.143Z,23.13
2018-05-12T08:15:10.581Z,24.03
2018-05-12T08:17:38.796Z,23.77
2018-05-12T08:20:06.250Z,23.07
2018-05-12T08:22:33.706Z,24.03
2018-05-12T08:25:01.923Z,24.07
2018-05-12T08:27:29.388Z,21.93
2018-05-12T08:29:56.856Z,25.93
2018-05-12T08:32:24.343Z,25.20
2018-05-12T08:34:51.784Z,22.80
2018-05-12T08:37:19.261Z,22.10
2018-05-12T08:39:46.721Z,23.07
2018-05-12T08:42:14.189Z,24.60
2018-05-12T08:44:41.650Z,25.63
2018-05-12T08:47:09.104Z,28.07
2018-05-12T08:49:37.327Z,25.57
2018-05-12T08:52:04.779Z,23.70
2018-05-12T08:54:32.232Z,22.33
2018-05-12T08:57:00.464Z,23.47
2018-05-12T08:59:27.927Z,25.93
2018-05-12T09:01:55.385Z,28.33
2018-05-12T09:04:22.827Z,26.70
2018-05-12T09:06:51.057Z,23.33
2018-05-12T09:09:18.504Z,28.07
2018-05-12T09:11:45.969Z,27.43
2018-05-12T09:14:13.429Z,21.57
2018-05-12T09:16:41.660Z,25.23
2018-05-12T09:19:09.113Z,26.40
2018-05-12T09:21:36.574Z,26.13
2018-05-12T09:24:04.021Z,26.27
2018-05-12T09:26:31.484Z,24.27
2018-05-12T09:28:59.705Z,27.07
2018-05-12T09:31:27.168Z,27.40
2018-05-12T09:33:54.624Z,27.17
2018-05-12T09:36:22.091Z,26.07
2018-05-12T09:38:50.291Z,27.17
2018-05-12T09:41:17.776Z,27.13
2018-05-12T09:43:45.233Z,26.70
2018-05-12T09:46:12.696Z,24.13
2018-05-12T09:48:40.144Z,25.20
2018-05-12T09:51:07.604Z,25.67
2018-05-12T09:53:35.825Z,26.30
2018-05-12T09:56:03.301Z,23.47
2018-05-12T09:58:30.748Z,25.53
2018-05-12T10:00:58.213Z,22.90
2018-05-12T10:03:25.682Z,24.10
2018-05-12T10:05:53.891Z,25.27
2018-05-12T10:08:21.344Z,24.90
2018-05-12T10:10:48.804Z,24.10
2018-05-12T10:13:16.243Z,26.03
2018-05-12T10:15:44.524Z,24.23
2018-05-12T10:18:11.973Z,23.40
2018-05-12T10:20:39.435Z,23.37
2018-05-12T10:23:06.888Z,22.77
2018-05-12T10:25:34.358Z,22.50
2018-05-12T10:28:01.799Z,22.60
2018-05-12T10:30:29.271Z,22.33
2018-05-12T10:32:56.725Z,21.70
2018-05-12T10:35:25.048Z,20.77
2018-05-12T10:37:52.492Z,19.43
2018-05-12T10:40:20.709Z,19.10
2018-05-12T10:42:48.177Z,17.77
2018-05-12T10:45:15.656Z,20.47
2018-05-12T10:47:43.117Z,20.23
2018-05-12T10:50:11.304Z,18.83
2018-05-12T10:52:38.774Z,17.70
2018-05-12T10:55:06.218Z,16.43
2018-05-12T10:57:33.679Z,18.60
2018-05-12T11:00:01.900Z,17.87
2018-05-12T11:02:29.351Z,16.63
2018-05-12T11:04:56.801Z,14.77
2018-05-12T11:07:25.024Z,16.50
2018-05-12T11:09:52.468Z,16.47
2018-05-12T11:12:19.939Z,15.47
2018-05-12T11:14:47.383Z,16.00
2018-05-12T11:17:15.607Z,14.50
2018-05-12T11:19:43.064Z,14.83
2018-05-12T11:22:10.530Z,12.93
2018-05-12T11:24:38.122Z,14.07
2018-05-12T11:27:05.576Z,11.57
2018-05-12T11:29:33.019Z,13.07
2018-05-12T11:32:00.491Z,14.23
2018-05-12T11:34:28.704Z,13.23
2018-05-12T11:36:56.177Z,13.13
2018-05-12T11:39:23.619Z,14.27
2018-05-12T11:41:51.955Z,12.97
2018-05-12T11:44:19.401Z,14.87
2018-05-12T11:46:46.860Z,14.67
2018-05-12T11:49:14.311Z,14.00
2018-05-12T11:51:42.549Z,12.57
2018-05-12T11:54:10.006Z,12.80
2018-05-12T11:56:37.452Z,13.70
2018-05-12T11:59:04.899Z,13.10
2018-05-12T12:01:32.358Z,12.00
2018-05-12T12:03:59.845Z,15.80
2018-05-12T12:06:28.064Z,12.70
2018-05-12T12:08:55.508Z,12.97
2018-05-12T12:11:22.965Z,11.13
2018-05-12T12:13:51.175Z,12.17
2018-05-12T12:16:18.661Z,11.20
2018-05-12T12:18:46.120Z,12.53
2018-05-12T12:21:13.585Z,12.50
2018-05-12T12:23:41.033Z,11.33
2018-05-12T12:26:09.264Z,12.23
2018-05-12T12:28:36.717Z,10.53
2018-05-12T12:31:04.181Z,10.97
2018-05-12T12:33:31.624Z,11.60
2018-05-12T12:35:59.876Z,9.13
2018-05-12T12:38:27.321Z,8.87
2018-05-12T12:40:54.777Z,9.83
2018-05-12T12:43:22.221Z,8.83
2018-05-12T12:45:50.436Z,23.17
2018-05-12T12:48:17.891Z,10.87
2018-05-12T12:50:45.340Z,8.13
2018-05-12T12:53:13.565Z,9.03
2018-05-12T12:55:41.010Z,9.97
2018-05-12T12:58:08.465Z,9.27
2018-05-12T13:00:36.679Z,11.70
2018-05-12T13:03:04.138Z,8.93
2018-05-12T13:05:31.591Z,8.13
2018-05-12T13:07:59.813Z,9.13
2018-05-12T13:10:27.256Z,8.20
2018-05-12T13:12:54.711Z,7.93
2018-05-12T13:15:22.917Z,7.33
2018-05-12T13:17:50.415Z,7.10
2018-05-12T13:20:17.861Z,8.07
2018-05-12T13:22:45.325Z,8.90
2018-05-12T13:25:12.768Z,8.40
2018-05-12T13:27:40.993Z,8.40
2018-05-12T13:30:08.456Z,7.90
2018-05-12T13:32:35.916Z,8.67
2018-05-12T13:35:03.373Z,8.67
2018-05-12T13:37:31.597Z,8.13
2018-05-12T13:39:59.040Z,8.60
2018-05-12T13:42:26.490Z,8.03
2018-05-12T13:44:54.701Z,9.20
2018-05-12T13:47:22.236Z,8.20
2018-05-12T13:49:49.673Z,8.83
2018-05-12T13:52:17.133Z,9.17
2018-05-12T13:54:44.662Z,8.03
2018-05-12T13:57:12.037Z,8.70
2018-05-12T13:59:39.505Z,9.37
2018-05-12T14:02:06.961Z,9.87
2018-05-12T14:04:35.175Z,9.07
2018-05-12T14:07:02.628Z,8.70
2018-05-12T14:09:30.080Z,7.50
2018-05-12T14:11:58.295Z,7.67
2018-05-12T14:14:25.772Z,7.90
2018-05-12T14:16:53.207Z,8.60
2018-05-12T14:19:21.422Z,6.87
2018-05-12T14:21:48.881Z,8.27
2018-05-12T14:24:16.342Z,7.83
2018-05-12T14:26:44.631Z,6.53
2018-05-12T14:29:12.825Z,8.00
2018-05-12T14:31:40.300Z,7.67
2018-05-12T14:34:08.495Z,8.33
2018-05-12T14:36:35.958Z,8.80
2018-05-12T14:39:03.460Z,8.20
2018-05-12T14:41:30.912Z,8.27
2018-05-12T14:43:58.360Z,8.20
2018-05-12T14:46:25.873Z,6.70
2018-05-12T14:48:53.320Z,8.57
2018-05-12T14:51:20.771Z,7.83
2018-05-12T14:53:48.257Z,7.43
2018-05-12T14:56:15.684Z,7.50
2018-05-12T14:58:43.995Z,7.20
2018-05-12T15:01:11.461Z,7.13
2018-05-12T15:03:38.919Z,7.87
2018-05-12T15:06:07.114Z,7.43
2018-05-12T15:08:34.595Z,7.10
2018-05-12T15:11:02.019Z,7.50
2018-05-12T15:13:30.237Z,7.67
2018-05-12T15:15:57.680Z,6.80
2018-05-12T15:18:25.990Z,7.50
2018-05-12T15:20:53.353Z,7.10
2018-05-12T15:23:20.936Z,7.50
2018-05-12T15:25:48.409Z,6.73
2018-05-12T15:28:15.885Z,6.07
2018-05-12T15:30:43.368Z,7.17
2018-05-12T15:33:10.806Z,8.00
2018-05-12T15:35:38.247Z,6.67
2018-05-12T15:38:06.462Z,5.97
2018-05-12T15:40:33.921Z,7.40
2018-05-12T15:43:02.141Z,6.27
2018-05-12T15:45:29.588Z,7.13
2018-05-12T15:47:57.039Z,7.23
2018-05-12T15:50:25.269Z,6.93
2018-05-12T15:52:52.733Z,7.27
2018-05-12T15:55:20.193Z,6.53
2018-05-12T15:57:47.636Z,7.13
2018-05-12T16:00:15.078Z,6.63
2018-05-12T16:02:42.545Z,6.40
2018-05-12T16:05:10.018Z,7.13
2018-05-12T16:07:37.465Z,6.53
2018-05-12T16:10:04.910Z,7.70
2018-05-12T16:12:32.396Z,7.00
2018-05-12T16:14:59.839Z,6.90
2018-05-12T16:17:27.297Z,7.00
2018-05-12T16:19:54.744Z,7.57
2018-05-12T16:22:23.107Z,6.23
2018-05-12T16:24:50.552Z,7.63
2018-05-12T16:27:18.011Z,8.40
2018-05-12T16:29:45.452Z,9.63
2018-05-12T16:32:12.915Z,8.87
2018-05-12T16:34:41.128Z,9.57
2018-05-12T16:37:08.596Z,8.43
2018-05-12T16:39:36.041Z,7.27
2018-05-12T16:42:04.277Z,8.07
2018-05-12T16:44:31.767Z,7.53
2018-05-12T16:46:59.177Z,7.77
2018-05-12T16:49:26.623Z,8.10
2018-05-12T16:51:54.854Z,8.07
2018-05-12T16:54:22.299Z,7.63
2018-05-12T16:56:49.766Z,7.60
2018-05-12T16:59:17.241Z,7.00
2018-05-12T17:01:44.660Z,8.10
2018-05-12T17:04:12.111Z,7.77
2018-05-12T17:06:39.560Z,7.67
2018-05-12T17:09:07.030Z,7.70
2018-05-12T17:11:34.484Z,7.73
2018-05-12T17:14:01.946Z,7.80
2018-05-12T17:16:30.153Z,7.57
2018-05-12T17:18:57.963Z,7.90
2018-05-12T17:21:26.925Z,7.87
2018-05-12T17:23:54.440Z,7.50
2018-05-12T17:26:21.884Z,8.00
2018-05-12T17:28:49.342Z,7.53
2018-05-12T17:31:16.784Z,8.20
2018-05-12T17:33:44.230Z,8.30
2018-05-12T17:36:12.629Z,8.10
2018-05-12T17:38:40.907Z,8.10
2018-05-12T17:41:08.349Z,8.00
2018-05-12T17:43:36.760Z,7.93
2018-05-12T17:46:04.217Z,7.43
2018-05-12T17:48:31.698Z,7.57
2018-05-12T17:50:59.133Z,8.27
2018-05-12T17:53:26.588Z,8.40
2018-05-12T17:55:54.033Z,8.20
2018-05-12T17:58:22.447Z,8.20
2018-05-12T18:00:49.895Z,7.90
2018-05-12T18:03:18.120Z,8.03
2018-05-12T18:05:45.564Z,8.07
2018-05-12T18:08:13.019Z,8.43
2018-05-12T18:10:41.228Z,8.07
2018-05-12T18:13:08.805Z,8.53
2018-05-12T18:15:36.258Z,9.07
2018-05-12T18:18:03.703Z,8.10
2018-05-12T18:20:31.907Z,8.53
2018-05-12T18:23:00.129Z,8.20
2018-05-12T18:25:27.808Z,8.27
2018-05-12T18:27:55.265Z,8.50
2018-05-12T18:30:22.710Z,8.30
2018-05-12T18:32:50.158Z,8.83
2018-05-12T18:35:29.871Z,8.67
2018-05-12T18:37:58.092Z,9.40
2018-05-12T18:40:25.553Z,8.87
2018-05-12T18:42:53.000Z,8.33
2018-05-12T18:45:21.217Z,9.13
2018-05-12T18:47:48.705Z,7.97
2018-05-12T18:50:16.151Z,8.60
2018-05-12T18:52:43.605Z,8.10
2018-05-12T18:55:11.817Z,7.50
2018-05-12T18:57:39.301Z,7.97
2018-05-12T19:00:06.735Z,7.30
2018-05-12T19:02:34.224Z,8.38
2018-05-12T19:05:01.668Z,8.00
2018-05-12T19:07:29.897Z,7.20
2018-05-12T19:09:57.344Z,7.13
2018-05-12T19:12:24.810Z,7.23
2018-05-12T19:14:52.251Z,7.40
2018-05-12T19:17:19.725Z,7.67
2018-05-12T19:19:47.969Z,8.13
2018-05-12T19:22:15.401Z,7.10
2018-05-12T19:24:42.861Z,8.07
2018-05-12T19:27:11.066Z,8.57
2018-05-12T19:29:38.537Z,9.73
2018-05-12T19:32:05.994Z,11.17
2018-05-12T19:34:33.455Z,10.57
2018-05-12T19:37:01.674Z,9.33
2018-05-12T19:39:29.126Z,8.90
2018-05-12T19:41:56.572Z,9.57
2018-05-12T19:44:24.792Z,8.87
2018-05-12T19:46:52.244Z,12.83
2018-05-12T19:49:19.693Z,21.83
2018-05-12T19:51:48.008Z,19.10
2018-05-12T19:54:15.473Z,17.40
2018-05-12T19:56:42.920Z,14.03
2018-05-12T19:59:11.146Z,12.17
2018-05-12T20:01:38.597Z,8.60
2018-05-12T20:04:06.065Z,9.40
2018-05-12T20:06:33.552Z,8.47
2018-05-12T20:09:01.015Z,8.53
2018-05-12T20:11:28.465Z,8.07
2018-05-12T20:13:55.946Z,7.53
2018-05-12T20:16:23.372Z,7.23
2018-05-12T20:18:50.819Z,7.70
2018-05-12T20:21:18.263Z,7.80
2018-05-12T20:23:45.866Z,8.43
2018-05-12T20:26:13.306Z,7.63
2018-05-12T20:28:40.760Z,7.80
2018-05-12T20:31:08.271Z,8.00
2018-05-12T20:33:36.437Z,8.17
2018-05-12T20:36:03.884Z,7.87
2018-05-12T20:38:31.335Z,7.30
2018-05-12T20:40:58.785Z,7.60
2018-05-12T20:43:26.999Z,8.33
2018-05-12T20:45:55.351Z,7.73
2018-05-12T20:48:22.808Z,8.90
2018-05-12T20:50:50.257Z,8.93
2018-05-12T20:53:17.725Z,8.70
2018-05-12T20:55:45.180Z,9.37
2018-05-12T20:58:12.641Z,8.50
2018-05-12T21:00:40.085Z,8.63
2018-05-12T21:03:08.347Z,8.20
2018-05-12T21:05:35.824Z,9.35
2018-05-12T21:08:03.285Z,8.43
2018-05-12T21:10:30.728Z,8.87
2018-05-12T21:12:58.178Z,8.47
2018-05-12T21:15:25.624Z,8.80
2018-05-12T21:17:53.101Z,9.07
2018-05-12T22:06:12.564Z,8.30
2018-05-12T22:08:40.004Z,8.43
2018-05-12T22:11:07.465Z,8.67
2018-05-12T22:13:34.908Z,9.07
2018-05-12T22:16:02.373Z,8.27
2018-05-12T22:18:29.818Z,9.00
2018-05-12T22:20:57.280Z,11.90
2018-05-12T22:23:24.720Z,9.77
2018-05-12T22:25:52.175Z,11.03
2018-05-12T22:28:19.629Z,11.30
2018-05-12T22:30:47.093Z,10.77
2018-05-12T22:33:14.548Z,11.47
2018-05-12T22:35:42.768Z,10.50
2018-05-12T22:38:10.229Z,10.93
2018-05-12T22:40:37.691Z,10.37
2018-05-12T22:43:05.130Z,9.10
2018-05-12T22:45:33.358Z,10.17
2018-05-12T22:48:00.856Z,9.20
2018-05-12T22:50:28.295Z,9.60
2018-05-12T22:52:55.744Z,9.50
2018-05-12T22:55:23.960Z,9.37
2018-05-12T22:57:51.425Z,10.13
2018-05-12T23:00:19.599Z,9.60
2018-05-12T23:02:47.066Z,10.70
2018-05-12T23:05:14.525Z,15.07
2018-05-12T23:07:41.983Z,13.23
2018-05-12T23:10:10.275Z,12.13
2018-05-12T23:12:37.668Z,11.40
2018-05-12T23:15:05.127Z,11.73
2018-05-12T23:17:32.584Z,11.23
2018-05-12T23:20:00.032Z,10.80
2018-05-12T23:22:27.512Z,12.37
2018-05-12T23:24:54.958Z,12.73
2018-05-12T23:27:22.407Z,11.80
2018-05-12T23:29:49.856Z,11.40
2018-05-12T23:32:17.319Z,10.50
2018-05-12T23:34:44.767Z,11.30
2018-05-12T23:37:12.211Z,11.00
2018-05-12T23:39:39.663Z,12.83
2018-05-12T23:42:07.885Z,12.63
2018-05-12T23:44:36.107Z,14.10
2018-05-12T23:47:03.553Z,14.03
2018-05-12T23:49:31.012Z,14.83
2018-05-12T23:51:58.469Z,16.10
2018-05-12T23:54:26.700Z,16.97
2018-05-12T23:56:54.157Z,16.77
2018-05-12T23:59:21.615Z,18.57
